Time;durP1;ratioP1;P1;durP2;ratioP2;P2;SDS_P1;SDS_P2;PMS_P1;PMS_P2;Temp;Humidity;BMP_temperature;BMP_pressure;BME280_temperature;BME280_humidity;BME280_pressure;Samples;Min_cycle;Max_cycle;Signal;HPM_P1;HPM_P2
2021/03/29 00:02:00;;;;;;;14.27;6.85;;;6.20;99.90;;;;;;5033893;28;20184;-72
2021/03/29 00:04:26;;;;;;;13.68;5.70;;;6.10;99.90;;;;;;5034020;28;20049;-72
2021/03/29 00:06:53;;;;;;;11.30;5.18;;;6.10;99.90;;;;;;5016260;28;20025;-72
2021/03/29 00:09:20;;;;;;;12.13;5.80;;;6.10;99.90;;;;;;5033393;28;20029;-73
2021/03/29 00:11:47;;;;;;;8.60;5.28;;;6.10;99.90;;;;;;5033144;28;20033;-72
2021/03/29 00:14:15;;;;;;;12.90;6.32;;;6.00;99.90;;;;;;5032602;28;20436;-72
2021/03/29 00:16:41;;;;;;;13.15;5.95;;;6.10;99.90;;;;;;5032979;28;20151;-72
2021/03/29 00:19:10;;;;;;;15.00;6.22;;;6.00;99.90;;;;;;5032503;28;20030;-73
2021/03/29 00:21:37;;;;;;;10.65;5.93;;;6.00;99.90;;;;;;5032983;28;20032;-72
2021/03/29 00:24:04;;;;;;;13.40;6.22;;;6.00;99.90;;;;;;5014409;28;20092;-71
2021/03/29 00:26:30;;;;;;;12.02;6.18;;;6.00;99.90;;;;;;5035077;28;20041;-72
2021/03/29 00:28:56;;;;;;;12.48;6.30;;;6.00;99.90;;;;;;5015997;28;20026;-73
2021/03/29 00:31:22;;;;;;;13.13;6.80;;;6.00;99.90;;;;;;5032688;28;20357;-73
2021/03/29 00:33:50;;;;;;;13.55;6.47;;;6.10;99.90;;;;;;5031442;28;20034;-71
2021/03/29 00:36:16;;;;;;;12.70;5.60;;;6.00;99.90;;;;;;5032816;28;20395;-72
2021/03/29 00:38:43;;;;;;;11.02;6.05;;;6.00;99.90;;;;;;5032220;28;20021;-72
2021/03/29 00:41:10;;;;;;;10.80;5.88;;;6.00;99.90;;;;;;5032486;28;20034;-72
2021/03/29 00:43:41;;;;;;;16.98;6.72;;;6.00;99.90;;;;;;5032215;28;20021;-72
2021/03/29 00:46:08;;;;;;;13.95;5.88;;;6.00;99.90;;;;;;5033220;28;20472;-72
2021/03/29 00:48:34;;;;;;;9.68;5.90;;;6.10;99.90;;;;;;5032658;28;20045;-72
2021/03/29 00:51:15;;;;;;;11.07;6.03;;;6.00;99.90;;;;;;5037720;28;20112;-72
2021/03/29 00:54:01;;;;;;;10.60;5.38;;;6.00;99.90;;;;;;5032577;28;20498;-72
2021/03/29 00:56:27;;;;;;;12.75;5.65;;;6.00;99.90;;;;;;5014846;28;20121;-72
2021/03/29 00:58:54;;;;;;;11.82;6.28;;;6.00;99.90;;;;;;5032571;28;20071;-72
2021/03/29 01:01:23;;;;;;;14.90;6.13;;;5.90;99.90;;;;;;5032652;28;20472;-72
2021/03/29 01:04:08;;;;;;;9.18;5.97;;;5.80;99.90;;;;;;5031111;28;20064;-72
2021/03/29 01:06:40;;;;;;;13.10;6.05;;;5.80;99.90;;;;;;5031670;28;20028;-71
2021/03/29 01:09:15;;;;;;;13.05;6.00;;;5.70;99.90;;;;;;5031648;28;20018;-72
2021/03/29 01:11:52;;;;;;;9.98;6.15;;;5.80;99.90;;;;;;5031910;28;20025;-72
2021/03/29 01:14:29;;;;;;;10.57;5.47;;;5.70;99.90;;;;;;5030823;28;20488;-71
2021/03/29 01:17:17;;;;;;;16.15;5.70;;;5.70;99.90;;;;;;5031999;28;20025;-72
2021/03/29 01:19:45;;;;;;;14.32;6.25;;;5.60;99.90;;;;;;5031550;28;20025;-71
2021/03/29 01:22:13;;;;;;;13.23;6.28;;;5.60;99.90;;;;;;5030690;28;20029;-71
2021/03/29 01:24:53;;;;;;;12.90;6.18;;;5.50;99.90;;;;;;5013190;28;20032;-72
2021/03/29 01:27:32;;;;;;;11.43;5.35;;;5.50;99.90;;;;;;5013999;28;20112;-71
2021/03/29 01:29:59;;;;;;;11.45;5.40;;;5.50;99.90;;;;;;5031486;28;20388;-73
2021/03/29 01:32:26;;;;;;;9.48;5.82;;;5.40;99.90;;;;;;5031584;28;20438;-71
2021/03/29 01:34:52;;;;;;;9.38;5.80;;;5.30;99.90;;;;;;5030849;28;20065;-72
2021/03/29 01:37:19;;;;;;;14.95;5.70;;;5.20;99.90;;;;;;5031519;28;20468;-71
2021/03/29 01:39:47;;;;;;;10.88;5.93;;;5.20;99.90;;;;;;5031460;28;20026;-72
2021/03/29 01:42:13;;;;;;;14.27;6.07;;;5.20;99.90;;;;;;5013868;28;20022;-73
2021/03/29 01:44:41;;;;;;;11.02;5.70;;;5.10;99.90;;;;;;5030949;28;20476;-72
2021/03/29 01:47:08;;;;;;;12.48;5.80;;;5.10;99.90;;;;;;5014076;28;20488;-71
2021/03/29 01:49:35;;;;;;;12.52;6.20;;;5.10;99.90;;;;;;5031488;28;20048;-72
2021/03/29 01:52:02;;;;;;;8.57;5.15;;;5.10;99.90;;;;;;5033868;28;20026;-72
2021/03/29 01:54:30;;;;;;;12.88;6.10;;;4.90;99.90;;;;;;5031575;28;20036;-72
2021/03/29 01:56:56;;;;;;;9.82;5.55;;;4.80;99.90;;;;;;5032276;28;20357;-72
2021/03/29 01:59:22;;;;;;;9.38;5.18;;;4.80;99.90;;;;;;5014699;28;20083;-72
2021/03/29 02:01:47;;;;;;;9.93;5.55;;;4.80;99.90;;;;;;5036148;28;20034;-72
2021/03/29 02:04:13;;;;;;;9.13;5.63;;;4.80;99.90;;;;;;5034785;28;20038;-71
2021/03/29 02:06:40;;;;;;;12.70;6.07;;;4.80;99.90;;;;;;5035491;28;20026;-72
2021/03/29 02:09:08;;;;;;;12.38;6.07;;;4.80;99.90;;;;;;5017396;28;20029;-72
2021/03/29 02:11:35;;;;;;;13.30;6.15;;;4.70;99.90;;;;;;5035254;28;20619;-72
2021/03/29 02:14:02;;;;;;;12.15;6.38;;;4.70;99.90;;;;;;5034419;28;20021;-72
2021/03/29 02:16:30;;;;;;;10.55;5.95;;;4.50;99.90;;;;;;5017377;28;20104;-71
2021/03/29 02:19:01;;;;;;;14.15;5.75;;;4.60;99.90;;;;;;5034644;28;20087;-73
2021/03/29 02:21:35;;;;;;;12.45;6.55;;;4.60;99.90;;;;;;5034966;28;20056;-72
2021/03/29 02:24:02;;;;;;;12.88;6.53;;;4.60;99.90;;;;;;5034044;28;20025;-72
2021/03/29 02:26:34;;;;;;;10.18;6.40;;;4.50;99.90;;;;;;5035049;28;20109;-72
2021/03/29 02:29:00;;;;;;;18.02;6.55;;;4.50;99.90;;;;;;5017272;28;20022;-73
2021/03/29 02:31:27;;;;;;;11.25;5.80;;;4.40;99.90;;;;;;5017370;28;20037;-72
2021/03/29 02:33:55;;;;;;;9.45;5.88;;;4.40;99.90;;;;;;5034502;28;20029;-72
2021/03/29 02:36:21;;;;;;;10.10;6.10;;;4.40;99.90;;;;;;5034739;28;20021;-72
2021/03/29 02:38:49;;;;;;;11.00;5.55;;;4.40;99.90;;;;;;5016722;28;20021;-72
2021/03/29 02:41:16;;;;;;;13.73;6.03;;;4.40;99.90;;;;;;5034971;28;20384;-71
2021/03/29 02:43:46;;;;;;;13.30;6.03;;;4.40;99.90;;;;;;5033803;28;20473;-73
2021/03/29 02:46:13;;;;;;;13.40;6.07;;;4.40;99.90;;;;;;5034606;28;20084;-71
2021/03/29 02:48:42;;;;;;;15.25;6.72;;;4.40;99.90;;;;;;5034662;28;20495;-71
2021/03/29 02:51:13;;;;;;;9.82;5.22;;;4.40;99.90;;;;;;5034651;28;20021;-72
2021/03/29 02:53:46;;;;;;;12.35;5.25;;;4.30;99.90;;;;;;5033739;28;20639;-71
2021/03/29 02:56:21;;;;;;;8.77;5.80;;;4.40;99.90;;;;;;5034320;28;20044;-73
2021/03/29 02:58:53;;;;;;;8.85;5.65;;;4.30;99.90;;;;;;5050065;28;20033;-72
2021/03/29 03:01:25;;;;;;;14.77;6.20;;;4.20;99.90;;;;;;5054395;28;20025;-72
2021/03/29 03:03:53;;;;;;;10.05;5.55;;;4.20;99.90;;;;;;5053596;28;20029;-72
2021/03/29 03:06:22;;;;;;;12.43;5.95;;;4.10;99.90;;;;;;5055719;28;20101;-71
2021/03/29 03:08:48;;;;;;;11.13;5.20;;;4.20;99.90;;;;;;5037615;28;20018;-71
2021/03/29 03:11:15;;;;;;;12.57;5.95;;;4.10;99.90;;;;;;5033640;28;20032;-72
2021/03/29 03:13:43;;;;;;;11.98;5.45;;;4.10;99.90;;;;;;5033957;28;20165;-72
2021/03/29 03:16:10;;;;;;;12.52;6.15;;;4.00;99.90;;;;;;5034257;28;20025;-73
2021/03/29 03:18:36;;;;;;;8.40;5.55;;;3.90;99.90;;;;;;5034112;28;20404;-71
2021/03/29 03:21:02;;;;;;;8.55;5.30;;;3.80;99.90;;;;;;5034564;28;20052;-72
2021/03/29 03:23:28;;;;;;;12.05;5.82;;;3.90;99.90;;;;;;5033221;28;20033;-71
2021/03/29 03:25:54;;;;;;;8.98;5.28;;;3.90;99.90;;;;;;5034470;28;20038;-72
2021/03/29 03:28:23;;;;;;;12.52;6.28;;;3.80;99.90;;;;;;5034653;28;20045;-71
2021/03/29 03:30:52;;;;;;;9.63;5.50;;;3.90;99.90;;;;;;5052119;28;20045;-71
2021/03/29 03:33:20;;;;;;;9.13;5.65;;;3.80;99.90;;;;;;5036900;28;20472;-72
2021/03/29 03:35:47;;;;;;;8.70;5.22;;;3.70;99.90;;;;;;5034043;28;20037;-71
2021/03/29 03:38:20;;;;;;;10.27;5.68;;;3.70;99.90;;;;;;5034077;28;20036;-72
2021/03/29 03:41:07;;;;;;;8.60;5.75;;;3.70;99.90;;;;;;5016393;28;20079;-72
2021/03/29 03:43:36;;;;;;;9.25;5.50;;;3.70;99.90;;;;;;5033130;28;20174;-71
2021/03/29 03:46:01;;;;;;;7.38;5.15;;;3.70;99.90;;;;;;5033580;28;20361;-71
2021/03/29 03:48:28;;;;;;;10.77;5.13;;;3.60;99.90;;;;;;5033531;28;20037;-71
2021/03/29 03:50:53;;;;;;;11.63;5.57;;;3.60;99.90;;;;;;5033519;28;20033;-72
2021/03/29 03:53:21;;;;;;;12.25;5.80;;;3.60;99.90;;;;;;5032702;28;20021;-71
2021/03/29 03:55:54;;;;;;;10.80;5.93;;;3.60;99.90;;;;;;5033483;28;20088;-72
2021/03/29 03:58:20;;;;;;;12.77;5.88;;;3.60;99.90;;;;;;5016047;28;20045;-72
2021/03/29 04:00:47;;;;;;;12.55;5.75;;;3.60;99.90;;;;;;5015826;28;20518;-71
2021/03/29 04:03:12;;;;;;;8.77;5.38;;;3.50;99.90;;;;;;5032885;28;20543;-72
2021/03/29 04:05:38;;;;;;;10.38;5.70;;;3.50;99.90;;;;;;5015986;28;20067;-72
2021/03/29 04:08:04;;;;;;;8.90;5.50;;;3.50;99.90;;;;;;5033327;28;20028;-71
2021/03/29 04:10:44;;;;;;;15.38;5.88;;;3.40;99.90;;;;;;5033533;28;20022;-72
2021/03/29 04:13:24;;;;;;;10.40;5.60;;;3.40;99.90;;;;;;5033307;28;20018;-72
2021/03/29 04:15:50;;;;;;;14.80;5.90;;;3.40;99.90;;;;;;5033598;28;20026;-72
2021/03/29 04:18:16;;;;;;;9.55;5.47;;;3.30;99.90;;;;;;5037291;28;20037;-73
2021/03/29 04:20:42;;;;;;;13.32;5.95;;;3.30;99.90;;;;;;5039452;28;20049;-72
2021/03/29 04:23:08;;;;;;;12.93;5.43;;;3.20;99.90;;;;;;5037149;28;20021;-72
2021/03/29 04:25:33;;;;;;;14.25;5.22;;;3.20;99.90;;;;;;5033346;28;20502;-72
2021/03/29 04:27:59;;;;;;;9.45;5.22;;;3.20;99.90;;;;;;5032908;28;20034;-72
2021/03/29 04:30:25;;;;;;;10.32;6.15;;;3.10;99.90;;;;;;5032844;28;20021;-72
2021/03/29 04:32:52;;;;;;;13.48;5.78;;;3.20;99.90;;;;;;5032043;28;20033;-71
2021/03/29 04:35:22;;;;;;;11.85;6.32;;;3.20;99.90;;;;;;5032495;28;20090;-72
2021/03/29 04:37:49;;;;;;;16.15;6.68;;;3.30;99.90;;;;;;5032632;28;20411;-71
2021/03/29 04:40:15;;;;;;;11.13;5.47;;;3.20;99.90;;;;;;5032593;28;20100;-73
2021/03/29 04:42:41;;;;;;;12.13;5.72;;;3.10;99.90;;;;;;5022416;28;20033;-75
2021/03/29 04:45:08;;;;;;;13.32;6.45;;;3.10;99.90;;;;;;5031057;28;20026;-74
2021/03/29 04:47:34;;;;;;;7.72;5.00;;;3.10;99.90;;;;;;5012576;28;20039;-73
2021/03/29 04:49:59;;;;;;;10.30;5.47;;;3.10;99.90;;;;;;5049194;28;20124;-72
2021/03/29 04:52:25;;;;;;;9.75;6.35;;;3.10;99.90;;;;;;5047888;28;20453;-72
2021/03/29 04:54:51;;;;;;;8.57;5.40;;;3.00;99.90;;;;;;5039153;28;20388;-72
2021/03/29 04:57:17;;;;;;;14.90;6.72;;;3.00;99.90;;;;;;5031593;28;20034;-72
2021/03/29 04:59:43;;;;;;;9.70;5.53;;;3.00;99.90;;;;;;5030294;28;20029;-72
2021/03/29 05:02:10;;;;;;;8.27;5.85;;;3.00;99.90;;;;;;5048312;28;20036;-72
2021/03/29 05:04:35;;;;;;;11.00;6.07;;;3.00;99.90;;;;;;5049282;28;20116;-72
2021/03/29 05:07:06;;;;;;;10.25;5.95;;;3.00;99.90;;;;;;5050168;28;20116;-74
2021/03/29 05:09:32;;;;;;;9.90;5.82;;;3.00;99.90;;;;;;5049429;28;20029;-73
2021/03/29 05:12:07;;;;;;;12.77;6.05;;;3.00;99.90;;;;;;5032212;28;20033;-72
2021/03/29 05:14:32;;;;;;;9.90;5.65;;;2.90;99.90;;;;;;5048633;28;20052;-72
2021/03/29 05:16:58;;;;;;;16.45;7.05;;;2.90;99.90;;;;;;5049779;28;20480;-72
2021/03/29 05:19:24;;;;;;;14.77;7.97;;;2.90;99.90;;;;;;5049868;28;20025;-72
2021/03/29 05:21:49;;;;;;;16.48;7.20;;;2.80;99.90;;;;;;5049054;28;20025;-72
2021/03/29 05:24:15;;;;;;;12.85;8.27;;;2.80;99.90;;;;;;5028674;28;20076;-74
2021/03/29 05:26:41;;;;;;;16.13;7.68;;;2.80;99.90;;;;;;5032549;28;20018;-71
2021/03/29 05:29:06;;;;;;;13.25;7.47;;;2.80;99.90;;;;;;5033947;28;20380;-72
2021/03/29 05:31:39;;;;;;;14.75;7.25;;;2.70;99.90;;;;;;5033107;28;20484;-72
2021/03/29 05:34:05;;;;;;;12.50;6.50;;;2.80;99.90;;;;;;5028784;28;20422;-72
2021/03/29 05:36:30;;;;;;;10.73;6.03;;;2.80;99.90;;;;;;5034415;28;20025;-72
2021/03/29 05:38:56;;;;;;;15.32;7.38;;;2.90;99.90;;;;;;5047871;28;20032;-74
2021/03/29 05:41:22;;;;;;;15.18;5.95;;;3.00;99.90;;;;;;5033700;28;20558;-73
2021/03/29 05:43:48;;;;;;;12.73;6.70;;;3.00;99.90;;;;;;5030003;28;20029;-72
2021/03/29 05:46:14;;;;;;;12.02;6.65;;;3.10;99.90;;;;;;5029927;28;20092;-73
2021/03/29 05:48:40;;;;;;;14.18;6.72;;;3.00;99.90;;;;;;5030618;28;20029;-72
2021/03/29 05:51:07;;;;;;;13.18;6.78;;;3.00;99.90;;;;;;5030276;28;20557;-72
2021/03/29 05:53:34;;;;;;;9.95;6.10;;;3.00;99.90;;;;;;5039376;28;20029;-73
2021/03/29 05:56:00;;;;;;;17.15;6.85;;;3.00;99.90;;;;;;5040199;28;20032;-72
2021/03/29 06:00:53;;;;;;;13.45;6.03;;;3.10;99.90;;;;;;5029967;28;20120;-72
2021/03/29 06:03:25;;;;;;;39.70;6.90;;;3.20;99.90;;;;;;5029436;28;20021;-75
2021/03/29 06:05:54;;;;;;;9.93;5.15;;;3.20;99.90;;;;;;5029439;28;20132;-74
2021/03/29 06:08:20;;;;;;;10.00;5.78;;;3.10;99.90;;;;;;5015944;28;20091;-74
2021/03/29 06:10:49;;;;;;;9.38;4.85;;;3.10;99.90;;;;;;5016276;28;20022;-73
2021/03/29 06:13:19;;;;;;;8.13;4.72;;;3.20;99.90;;;;;;5024226;28;20279;-73
2021/03/29 06:15:46;;;;;;;8.75;4.18;;;3.40;99.90;;;;;;5028281;28;20026;-75
2021/03/29 06:18:16;;;;;;;6.78;4.68;;;3.60;99.90;;;;;;5011988;28;20022;-74
2021/03/29 06:21:10;;;;;;;9.93;4.60;;;3.80;99.90;;;;;;5010809;28;20044;-75
2021/03/29 06:23:38;;;;;;;11.25;5.15;;;3.90;99.90;;;;;;5031251;28;20017;-75
2021/03/29 06:26:22;;;;;;;13.45;4.55;;;4.10;99.90;;;;;;5014079;28;20021;-74
2021/03/29 06:28:49;;;;;;;9.00;5.03;;;4.20;99.90;;;;;;5019919;28;20025;-73
2021/03/29 06:31:25;;;;;;;7.53;4.30;;;4.40;99.90;;;;;;5028866;28;20472;-75
2021/03/29 06:33:52;;;;;;;13.23;5.25;;;4.50;99.90;;;;;;5012301;28;20097;-74
2021/03/29 06:36:47;;;;;;;9.23;4.80;;;4.40;99.90;;;;;;4997491;28;20037;-73
2021/03/29 06:39:19;;;;;;;11.10;5.57;;;4.50;99.90;;;;;;5018150;28;20479;-74
2021/03/29 06:41:55;;;;;;;;;;;4.70;99.90;;;;;;5032234;28;20088;-73
2021/03/29 06:44:24;;;;;;;13.25;5.05;;;4.90;99.90;;;;;;5005136;28;19959;-72
2021/03/29 06:47:02;;;;;;;14.07;5.35;;;5.00;99.90;;;;;;5021052;28;20174;-74
2021/03/29 06:49:48;;;;;;;15.93;5.30;;;4.90;99.90;;;;;;5035134;28;20037;-74
2021/03/29 06:52:20;;;;;;;8.80;4.97;;;5.10;99.90;;;;;;5034737;28;20026;-73
2021/03/29 06:54:46;;;;;;;8.43;5.90;;;5.40;99.90;;;;;;5032809;28;20033;-74
2021/03/29 06:57:12;;;;;;;11.25;5.55;;;5.40;99.90;;;;;;5034685;28;20488;-73
2021/03/29 06:59:38;;;;;;;10.73;5.15;;;5.30;99.90;;;;;;5036092;28;20033;-73
2021/03/29 07:02:07;;;;;;;22.42;5.63;;;5.50;99.90;;;;;;5036514;28;20037;-72
2021/03/29 07:04:35;;;;;;;15.52;5.15;;;5.70;99.90;;;;;;5009584;28;20026;-73
2021/03/29 07:07:02;;;;;;;8.32;4.72;;;5.70;99.90;;;;;;5020799;28;20030;-74
2021/03/29 07:09:32;;;;;;;9.02;4.50;;;6.10;99.90;;;;;;5019696;28;20416;-73
2021/03/29 07:12:03;;;;;;;10.18;5.35;;;6.10;99.90;;;;;;5015333;28;20022;-73
2021/03/29 07:14:30;;;;;;;11.98;4.63;;;6.10;99.90;;;;;;4995849;28;20034;-74
2021/03/29 07:16:56;;;;;;;7.43;4.55;;;6.40;99.90;;;;;;5031423;28;20034;-75
2021/03/29 07:19:23;;;;;;;12.32;4.35;;;6.30;99.90;;;;;;5050158;28;20083;-74
2021/03/29 07:21:48;;;;;;;9.27;4.93;;;6.40;99.90;;;;;;5034254;28;20140;-78
2021/03/29 07:24:14;;;;;;;15.95;4.78;;;6.40;99.90;;;;;;5016465;28;20115;-73
2021/03/29 07:26:53;;;;;;;6.65;4.50;;;6.40;99.90;;;;;;5016100;28;20471;-74
2021/03/29 07:29:21;;;;;;;10.75;4.50;;;6.50;99.90;;;;;;5032635;28;20658;-74
2021/03/29 07:31:50;;;;;;;11.32;5.15;;;6.80;99.90;;;;;;5033846;28;20434;-75
2021/03/29 07:34:17;;;;;;;9.65;5.35;;;7.00;99.90;;;;;;5032899;28;20087;-75
2021/03/29 07:36:48;;;;;;;7.30;4.57;;;6.90;99.90;;;;;;5033697;28;20415;-73
2021/03/29 07:39:21;;;;;;;7.20;4.53;;;6.80;99.90;;;;;;5014466;28;20022;-73
2021/03/29 07:41:47;;;;;;;10.27;4.47;;;7.10;99.90;;;;;;5033315;28;20056;-73
2021/03/29 07:44:18;;;;;;;7.15;4.47;;;7.00;99.90;;;;;;5014746;28;20101;-74
2021/03/29 07:46:48;;;;;;;10.88;5.05;;;7.40;99.90;;;;;;5033224;28;20384;-72
2021/03/29 07:49:39;;;;;;;10.75;5.70;;;7.70;99.90;;;;;;5033670;28;20084;-73
2021/03/29 07:52:28;;;;;;;8.00;4.63;;;7.60;99.90;;;;;;5033364;28;20038;-73
2021/03/29 07:54:55;;;;;;;9.93;4.13;;;7.70;99.90;;;;;;5032263;28;20024;-74
2021/03/29 07:57:45;;;;;;;11.90;4.50;;;7.90;99.90;;;;;;5032815;28;20614;-73
2021/03/29 08:00:25;;;;;;;8.82;3.85;;;8.20;99.90;;;;;;5000621;28;20355;-74
2021/03/29 08:02:58;;;;;;;5.57;3.92;;;8.50;99.90;;;;;;5013079;28;20018;-74
2021/03/29 08:05:43;;;;;;;4.70;3.78;;;8.80;99.90;;;;;;5018047;28;20040;-73
2021/03/29 08:08:27;;;;;;;5.80;3.53;;;9.10;99.90;;;;;;5038225;28;20029;-73
2021/03/29 08:10:58;;;;;;;5.38;2.92;;;9.30;99.90;;;;;;5034686;28;20025;-73
2021/03/29 08:13:44;;;;;;;5.43;3.28;;;9.60;99.90;;;;;;5034968;28;20025;-75
2021/03/29 08:16:30;;;;;;;3.33;2.53;;;9.50;99.90;;;;;;5033263;28;20033;-74
2021/03/29 08:19:20;;;;;;;4.80;3.00;;;9.80;99.90;;;;;;5050574;28;20017;-74
2021/03/29 08:21:53;;;;;;;8.93;4.03;;;10.30;99.90;;;;;;5053012;28;20044;-73
2021/03/29 08:24:19;;;;;;;8.00;3.53;;;10.60;99.90;;;;;;5051817;28;20040;-74
2021/03/29 08:26:46;;;;;;;4.93;3.38;;;10.80;99.90;;;;;;5052712;28;20547;-74
2021/03/29 08:29:28;;;;;;;3.13;2.70;;;11.10;99.90;;;;;;5034686;28;20040;-75
2021/03/29 08:32:30;;;;;;;8.82;3.10;;;11.30;99.90;;;;;;5032968;28;20028;-74
2021/03/29 08:35:05;;;;;;;6.65;3.17;;;12.00;99.90;;;;;;5035256;28;20037;-74
2021/03/29 08:37:50;;;;;;;6.60;2.97;;;11.60;99.90;;;;;;5041419;28;20112;-75
2021/03/29 08:40:20;;;;;;;7.53;3.75;;;11.30;99.90;;;;;;5020720;28;20025;-74
2021/03/29 08:42:50;;;;;;;9.48;3.83;;;11.40;99.90;;;;;;5034668;28;20444;-74
2021/03/29 08:45:19;;;;;;;4.57;3.58;;;11.80;99.90;;;;;;5032101;28;20025;-74
2021/03/29 08:47:48;;;;;;;6.82;3.55;;;12.60;99.30;;;;;;5032404;28;20108;-75
2021/03/29 08:50:17;;;;;;;4.88;3.17;;;13.20;98.00;;;;;;5032414;28;20025;-73
2021/03/29 08:52:51;;;;;;;4.38;3.20;;;13.00;97.50;;;;;;5031382;28;20156;-75
2021/03/29 08:55:23;;;;;;;4.80;2.90;;;13.70;96.10;;;;;;5031912;28;20034;-75
2021/03/29 08:57:56;;;;;;;3.83;3.05;;;14.90;94.30;;;;;;5031473;28;20022;-74
2021/03/29 09:00:30;;;;;;;4.10;2.90;;;15.30;93.10;;;;;;5032516;28;20048;-74
2021/03/29 09:02:55;;;;;;;4.97;2.53;;;15.40;92.60;;;;;;5031123;28;20044;-73
2021/03/29 09:05:23;;;;;;;4.47;2.80;;;16.10;90.70;;;;;;5033042;28;20025;-73
2021/03/29 09:07:52;;;;;;;5.72;3.13;;;16.70;87.90;;;;;;5033197;28;20025;-74
2021/03/29 09:10:27;;;;;;;6.00;2.95;;;17.10;85.70;;;;;;5031395;28;20033;-73
2021/03/29 09:12:58;;;;;;;4.03;2.80;;;17.50;82.60;;;;;;5013783;28;20503;-74
2021/03/29 09:15:27;;;;;;;4.10;2.50;;;17.50;81.10;;;;;;5031436;28;20068;-73
2021/03/29 09:18:16;;;;;;;5.00;2.78;;;18.00;80.40;;;;;;5040300;28;20036;-73
2021/03/29 09:20:47;;;;;;;3.08;2.50;;;18.00;75.60;;;;;;5042745;28;20041;-73
2021/03/29 09:23:15;;;;;;;5.00;2.40;;;18.30;74.70;;;;;;5030882;28;20018;-74
2021/03/29 09:25:43;;;;;;;8.00;2.78;;;18.10;74.30;;;;;;5031545;28;20119;-75
2021/03/29 09:28:32;;;;;;;3.67;2.42;;;18.00;74.30;;;;;;5031170;28;20088;-73
2021/03/29 09:31:26;;;;;;;7.38;2.47;;;18.60;72.90;;;;;;5034436;28;20025;-74
2021/03/29 09:33:53;;;;;;;4.13;2.80;;;19.20;73.00;;;;;;5017586;28;20041;-75
2021/03/29 09:36:23;;;;;;;2.72;2.50;;;18.40;75.30;;;;;;5035285;28;20075;-76
2021/03/29 09:38:56;;;;;;;4.45;2.80;;;19.20;73.10;;;;;;5032571;28;20021;-74
2021/03/29 09:41:32;;;;;;;5.43;2.95;;;18.70;71.60;;;;;;5036918;28;20025;-75
2021/03/29 09:43:58;;;;;;;5.15;2.83;;;19.10;72.50;;;;;;5034391;28;20018;-73
2021/03/29 09:46:31;;;;;;;9.38;3.13;;;19.30;69.50;;;;;;5030947;28;20026;-73
2021/03/29 09:49:08;;;;;;;4.13;2.53;;;19.60;69.60;;;;;;5031269;28;20033;-73
2021/03/29 09:51:36;;;;;;;2.80;2.50;;;20.90;68.20;;;;;;5033158;28;20048;-73
2021/03/29 09:54:18;;;;;;;3.55;2.28;;;19.00;67.30;;;;;;5031377;28;20044;-73
2021/03/29 09:56:44;;;;;;;6.95;2.42;;;18.80;68.10;;;;;;5031729;28;20063;-71
2021/03/29 09:59:10;;;;;;;5.15;2.17;;;20.00;67.80;;;;;;5031539;28;20468;-73
2021/03/29 10:01:45;;;;;;;3.55;2.25;;;19.10;65.90;;;;;;5032074;28;20037;-72
2021/03/29 10:04:14;;;;;;;2.50;2.08;;;18.70;67.00;;;;;;5033519;28;20022;-74
2021/03/29 10:06:51;;;;;;;10.88;2.63;;;18.60;70.40;;;;;;5032035;28;20026;-73
2021/03/29 10:09:32;;;;;;;4.72;2.75;;;19.60;66.90;;;;;;5031372;28;20022;-73
2021/03/29 10:12:00;;;;;;;7.50;1.90;;;20.40;63.80;;;;;;5032409;28;20025;-73
2021/03/29 10:14:37;;;;;;;4.70;1.75;;;20.90;58.50;;;;;;5013995;28;20092;-73
2021/03/29 10:17:17;;;;;;;4.97;1.63;;;20.60;57.70;;;;;;5034751;28;20025;-75
2021/03/29 10:19:43;;;;;;;2.83;1.40;;;20.60;56.00;;;;;;5050836;28;20117;-73
2021/03/29 10:22:17;;;;;;;2.88;1.70;;;20.80;53.80;;;;;;5046484;28;20041;-73
2021/03/29 10:25:17;;;;;;;4.60;1.60;;;19.90;57.90;;;;;;5035730;28;20026;-73
2021/03/29 10:27:44;;;;;;;5.45;1.60;;;20.50;57.20;;;;;;5018438;28;20096;-72
2021/03/29 10:30:20;;;;;;;3.67;1.52;;;22.00;54.30;;;;;;5035330;28;20116;-74
2021/03/29 10:32:48;;;;;;;3.05;1.35;;;22.80;49.40;;;;;;5035096;28;20021;-72
2021/03/29 10:35:14;;;;;;;3.75;1.52;;;22.90;47.60;;;;;;5033041;28;20500;-71
2021/03/29 10:37:40;;;;;;;2.15;1.50;;;23.40;48.90;;;;;;5035787;28;20036;-74
2021/03/29 10:40:07;;;;;;;4.32;1.88;;;25.10;47.10;;;;;;5037056;28;20025;-73
2021/03/29 10:42:35;;;;;;;2.45;1.50;;;25.10;46.90;;;;;;5036038;28;20052;-73
2021/03/29 10:45:05;;;;;;;3.05;2.13;;;25.80;47.60;;;;;;5042935;28;20044;-73
2021/03/29 10:47:35;;;;;;;5.70;1.90;;;26.30;44.20;;;;;;5047407;28;20086;-73
2021/03/29 10:50:00;;;;;;;3.63;1.77;;;27.20;45.40;;;;;;5043874;28;20029;-73
2021/03/29 10:52:26;;;;;;;3.63;1.60;;;25.60;42.80;;;;;;5043091;28;20037;-73
2021/03/29 10:54:52;;;;;;;4.28;2.10;;;24.90;46.20;;;;;;5021916;28;20025;-74
2021/03/29 10:57:18;;;;;;;4.65;1.90;;;26.60;44.10;;;;;;5031853;28;20013;-73
2021/03/29 10:59:44;;;;;;;5.28;2.35;;;28.10;40.30;;;;;;5027158;28;20061;-72
2021/03/29 11:02:10;;;;;;;2.60;1.60;;;28.90;39.60;;;;;;5033989;28;20060;-71
2021/03/29 11:04:35;;;;;;;3.40;1.85;;;29.60;39.80;;;;;;5051143;28;20041;-71
2021/03/29 11:07:01;;;;;;;3.95;2.05;;;28.50;36.80;;;;;;5053782;28;20036;-72
2021/03/29 11:09:27;;;;;;;8.30;2.10;;;24.50;41.90;;;;;;5053774;28;20394;-71
2021/03/29 11:11:53;;;;;;;3.33;1.98;;;22.90;45.80;;;;;;5053946;28;20033;-71
2021/03/29 11:14:23;;;;;;;8.05;2.28;;;23.10;43.60;;;;;;5052732;28;20474;-72
2021/03/29 11:16:51;;;;;;;6.85;3.25;;;23.00;45.10;;;;;;5035159;28;20021;-70
2021/03/29 11:19:19;;;;;;;3.80;1.48;;;24.70;40.90;;;;;;5033481;28;20104;-72
2021/03/29 11:21:44;;;;;;;1.50;1.40;;;26.30;39.60;;;;;;5033470;28;20074;-71
2021/03/29 11:24:12;;;;;;;4.20;1.70;;;27.70;38.40;;;;;;5033228;28;20017;-70
2021/03/29 11:26:38;;;;;;;3.13;1.17;;;28.40;36.60;;;;;;5034153;28;20085;-72
2021/03/29 11:29:04;;;;;;;3.05;1.48;;;26.90;35.00;;;;;;5022913;28;20025;-72
2021/03/29 11:31:29;;;;;;;3.22;1.60;;;25.00;36.30;;;;;;5013639;28;20044;-73
2021/03/29 11:33:55;;;;;;;1.65;1.55;;;25.60;37.70;;;;;;5014282;28;20074;-73
2021/03/29 11:36:21;;;;;;;4.35;1.65;;;26.30;34.80;;;;;;5033200;28;20025;-71
2021/03/29 11:38:49;;;;;;;3.15;1.38;;;27.70;36.00;;;;;;5020679;28;20108;-71
2021/03/29 11:41:19;;;;;;;3.10;1.60;;;27.60;34.60;;;;;;5051353;28;20021;-73
2021/03/29 11:43:45;;;;;;;9.57;1.77;;;27.40;37.10;;;;;;5052423;28;20132;-73
2021/03/29 11:46:11;;;;;;;3.65;1.80;;;25.50;35.40;;;;;;5052942;28;20383;-70
2021/03/29 11:48:37;;;;;;;3.30;1.50;;;25.90;38.10;;;;;;5052768;28;20021;-72
2021/03/29 11:51:03;;;;;;;2.30;1.50;;;27.50;37.80;;;;;;5033936;28;20025;-71
2021/03/29 11:53:29;;;;;;;3.67;1.63;;;27.50;35.10;;;;;;5036344;28;20017;-71
2021/03/29 11:55:55;;;;;;;3.03;1.55;;;27.10;41.60;;;;;;5030969;28;20484;-72
2021/03/29 11:58:21;;;;;;;3.08;1.30;;;26.50;36.10;;;;;;5013811;28;20022;-71
2021/03/29 12:00:51;;;;;;;2.42;1.42;;;25.40;32.80;;;;;;5027080;28;20014;-71
2021/03/29 12:05:48;;;;;;;3.05;1.40;;;24.00;36.60;;;;;;5031220;28;20056;-70
2021/03/29 12:13:31;;;;;;;1.63;1.10;;;25.40;35.50;;;;;;5029320;28;20060;-71
2021/03/29 12:15:57;;;;;;;7.45;1.55;;;25.30;34.20;;;;;;5033076;28;20551;-72
2021/03/29 12:21:13;;;;;;;2.33;1.23;;;25.50;36.40;;;;;;5052936;28;20086;-73
2021/03/29 12:23:41;;;;;;;3.78;1.55;;;25.50;36.20;;;;;;5033482;28;20017;-71
2021/03/29 12:26:09;;;;;;;3.45;1.15;;;26.80;36.00;;;;;;5052586;28;20170;-72
2021/03/29 12:28:36;;;;;;;1.75;1.38;;;27.40;33.70;;;;;;5040473;28;20036;-72
2021/03/29 12:31:03;;;;;;;3.78;1.48;;;26.20;34.20;;;;;;5048172;28;20025;-72
2021/03/29 12:33:30;;;;;;;3.22;1.40;;;26.40;35.00;;;;;;5051274;28;20029;-70
2021/03/29 12:35:59;;;;;;;1.77;1.05;;;26.40;34.00;;;;;;5052029;28;20025;-71
2021/03/29 12:38:29;;;;;;;3.05;1.17;;;27.10;35.50;;;;;;5052588;28;20101;-71
2021/03/29 12:41:00;;;;;;;2.33;1.40;;;26.90;33.90;;;;;;5034659;28;20025;-70
2021/03/29 12:43:40;;;;;;;5.50;1.67;;;27.30;34.10;;;;;;5051182;28;20036;-70
2021/03/29 12:46:07;;;;;;;4.38;1.80;;;27.60;34.60;;;;;;5052222;28;20052;-71
2021/03/29 12:48:35;;;;;;;2.95;1.23;;;27.50;32.40;;;;;;5052806;28;20021;-70
2021/03/29 12:51:03;;;;;;;2.58;1.58;;;26.10;31.60;;;;;;5052748;28;20122;-72
2021/03/29 12:53:29;;;;;;;2.53;1.42;;;23.80;36.10;;;;;;5033407;28;20108;-71
2021/03/29 12:55:56;;;;;;;2.78;1.50;;;23.50;37.70;;;;;;5044823;28;20259;-71
2021/03/29 12:58:22;;;;;;;6.55;1.60;;;24.20;36.60;;;;;;5031544;28;20021;-71
2021/03/29 13:00:49;;;;;;;9.05;1.55;;;25.00;37.10;;;;;;5032072;28;20355;-71
2021/03/29 13:03:15;;;;;;;1.73;1.30;;;25.80;35.60;;;;;;5031186;28;20032;-71
2021/03/29 13:08:22;;;;;;;3.55;1.30;;;25.60;35.30;;;;;;5012238;28;20376;-71
2021/03/29 13:13:35;;;;;;;4.90;1.73;;;26.00;34.50;;;;;;5011089;28;20040;-70
2021/03/29 13:16:02;;;;;;;2.33;1.40;;;25.30;35.50;;;;;;5011459;28;20029;-70
2021/03/29 13:18:27;;;;;;;4.38;1.55;;;24.40;36.30;;;;;;5012166;28;20026;-70
2021/03/29 13:20:58;;;;;;;3.15;1.60;;;24.20;37.50;;;;;;5025616;28;20029;-71
2021/03/29 13:23:24;;;;;;;2.73;1.30;;;24.80;36.80;;;;;;4995389;28;20380;-70